Time;durP1;ratioP1;P1;durP2;ratioP2;P2;SDS_P1;SDS_P2;PMS_P1;PMS_P2;Temp;Humidity;BMP_temperature;BMP_pressure;BME280_temperature;BME280_humidity;BME280_pressure;Samples;Min_cycle;Max_cycle;Signal;HPM_P1;HPM_P2
2023/12/29 00:01:51;;;;;;;15.02;3.47;;;10.40;99.90;;;;;;5039699;28;20113;-80
2023/12/29 00:04:17;;;;;;;14.23;3.30;;;10.30;99.90;;;;;;5048284;28;20053;-80
2023/12/29 00:06:43;;;;;;;13.30;3.38;;;10.30;99.90;;;;;;5039813;28;20499;-80
2023/12/29 00:09:09;;;;;;;13.77;3.83;;;10.20;99.90;;;;;;5042737;28;20044;-81
2023/12/29 00:11:34;;;;;;;14.43;3.83;;;10.30;99.90;;;;;;5041162;28;20049;-80
2023/12/29 00:14:00;;;;;;;12.73;3.45;;;10.20;99.90;;;;;;5043079;28;20132;-80
2023/12/29 00:16:27;;;;;;;16.30;3.38;;;10.20;99.90;;;;;;5036552;28;20135;-80
2023/12/29 00:18:53;;;;;;;;;;;10.20;99.90;;;;;;5040094;28;20052;-81
2023/12/29 00:21:18;;;;;;;13.85;3.67;;;10.10;99.90;;;;;;5043652;28;19920;-81
2023/12/29 00:23:44;;;;;;;12.48;3.22;;;10.10;99.90;;;;;;5041406;28;20053;-81
2023/12/29 00:26:10;;;;;;;16.38;3.30;;;10.20;99.90;;;;;;5039019;28;20508;-81
2023/12/29 00:28:40;;;;;;;14.82;3.65;;;10.10;99.90;;;;;;5038593;28;20045;-81
2023/12/29 00:31:06;;;;;;;16.33;3.80;;;10.10;99.90;;;;;;5036145;28;20128;-81
2023/12/29 00:33:32;;;;;;;17.13;4.10;;;10.10;99.90;;;;;;5038880;28;20060;-80
2023/12/29 00:35:58;;;;;;;14.15;3.72;;;10.10;99.90;;;;;;5041730;28;20052;-80
2023/12/29 00:38:24;;;;;;;15.13;3.97;;;10.10;99.90;;;;;;5037480;28;20396;-81
2023/12/29 00:40:50;;;;;;;11.10;3.27;;;10.10;99.90;;;;;;5038885;28;20045;-81
2023/12/29 00:43:15;;;;;;;14.27;3.15;;;10.10;99.90;;;;;;5053249;28;20533;-81
2023/12/29 00:45:41;;;;;;;13.95;3.38;;;10.10;99.90;;;;;;5054744;28;20080;-80
2023/12/29 00:48:07;;;;;;;13.70;3.88;;;10.00;99.90;;;;;;5049305;28;20062;-80
2023/12/29 00:50:32;;;;;;;13.02;3.47;;;10.00;99.90;;;;;;5035449;28;20052;-80
2023/12/29 00:52:58;;;;;;;12.18;3.15;;;10.00;99.90;;;;;;5046941;28;20037;-81
2023/12/29 00:55:24;;;;;;;12.40;3.05;;;10.00;99.90;;;;;;5038215;28;20056;-81
2023/12/29 00:57:49;;;;;;;11.82;3.03;;;10.00;99.90;;;;;;5039493;28;20063;-80
2023/12/29 01:00:15;;;;;;;11.82;3.92;;;9.90;99.90;;;;;;5045877;28;20041;-81
2023/12/29 01:02:41;;;;;;;12.50;3.67;;;9.90;99.90;;;;;;5045359;28;20083;-81
2023/12/29 01:05:07;;;;;;;12.07;3.28;;;9.90;99.90;;;;;;5037229;28;20053;-80
2023/12/29 01:07:32;;;;;;;14.38;3.55;;;9.90;99.90;;;;;;5034747;28;20139;-80
2023/12/29 01:09:58;;;;;;;12.52;3.20;;;9.90;99.90;;;;;;5040625;28;20044;-81
2023/12/29 01:12:25;;;;;;;13.63;3.00;;;9.90;99.90;;;;;;5037465;28;20378;-80
2023/12/29 01:14:50;;;;;;;13.30;4.07;;;9.90;99.90;;;;;;5036858;28;20037;-80
2023/12/29 01:17:16;;;;;;;16.88;3.53;;;9.90;99.90;;;;;;5040945;28;20135;-80
2023/12/29 01:19:41;;;;;;;12.30;3.33;;;9.90;99.90;;;;;;5041450;28;20098;-80
2023/12/29 01:22:07;;;;;;;14.02;3.83;;;9.90;99.90;;;;;;5036194;28;20040;-80
2023/12/29 01:24:32;;;;;;;16.55;3.75;;;9.90;99.90;;;;;;5037428;28;20111;-80
2023/12/29 01:26:58;;;;;;;16.38;4.05;;;9.90;99.90;;;;;;5045675;28;20397;-80
2023/12/29 01:29:24;;;;;;;14.82;4.38;;;9.90;99.90;;;;;;5041853;28;20077;-80
2023/12/29 01:31:49;;;;;;;13.82;3.35;;;9.90;99.90;;;;;;5048983;28;20052;-80
2023/12/29 01:34:15;;;;;;;13.70;3.83;;;9.90;99.90;;;;;;5037558;28;20522;-80
2023/12/29 01:36:40;;;;;;;15.52;3.92;;;9.90;99.90;;;;;;5041551;28;20053;-80
2023/12/29 01:39:06;;;;;;;15.38;3.65;;;9.90;99.90;;;;;;5045805;28;20495;-80
2023/12/29 01:41:32;;;;;;;13.43;3.88;;;9.90;99.90;;;;;;5046700;28;20044;-81
2023/12/29 01:44:00;;;;;;;16.15;3.90;;;9.90;99.90;;;;;;5062854;28;20056;-80
2023/12/29 01:46:28;;;;;;;14.02;3.60;;;9.90;99.90;;;;;;5043855;28;20045;-81
2023/12/29 01:48:55;;;;;;;13.65;3.33;;;9.90;99.90;;;;;;5042199;28;20052;-80
2023/12/29 01:51:25;;;;;;;13.18;3.20;;;10.00;99.90;;;;;;5044286;28;20094;-80
2023/12/29 01:53:57;;;;;;;14.75;3.63;;;10.00;99.90;;;;;;5043969;28;20033;-80
2023/12/29 01:56:23;;;;;;;13.68;3.60;;;10.00;99.90;;;;;;5046815;28;20135;-81
2023/12/29 01:58:51;;;;;;;14.23;3.30;;;10.00;99.90;;;;;;5041829;28;20095;-80
2023/12/29 02:01:18;;;;;;;13.05;3.17;;;10.00;99.90;;;;;;5050314;28;20039;-79
2023/12/29 02:03:44;;;;;;;14.23;3.28;;;10.00;99.90;;;;;;5040703;28;20083;-80
2023/12/29 02:06:10;;;;;;;16.92;3.97;;;10.00;99.90;;;;;;5038565;28;20147;-81
2023/12/29 02:08:40;;;;;;;12.50;3.38;;;10.00;99.90;;;;;;5041755;28;20039;-80
2023/12/29 02:11:07;;;;;;;13.10;3.53;;;10.00;99.90;;;;;;5044901;28;20040;-80
2023/12/29 02:13:32;;;;;;;13.18;3.35;;;10.10;99.90;;;;;;5069203;28;20044;-80
2023/12/29 02:16:06;;;;;;;13.27;3.25;;;10.00;99.90;;;;;;5046798;28;20463;-81
2023/12/29 02:18:36;;;;;;;13.52;3.45;;;10.00;99.90;;;;;;5042645;28;20041;-80
2023/12/29 02:21:03;;;;;;;11.20;3.63;;;10.00;99.90;;;;;;5040607;28;20045;-81
2023/12/29 02:23:29;;;;;;;12.55;3.30;;;10.00;99.90;;;;;;5038427;28;20041;-80
2023/12/29 02:26:01;;;;;;;11.05;3.35;;;10.00;99.90;;;;;;5067583;28;20106;-80
2023/12/29 02:28:27;;;;;;;13.32;3.30;;;10.00;99.90;;;;;;5044386;28;20047;-80
2023/12/29 02:31:06;;;;;;;11.85;3.30;;;10.00;99.90;;;;;;5046346;28;20044;-80
2023/12/29 02:33:40;;;;;;;11.43;3.42;;;10.00;99.90;;;;;;5074862;28;20048;-80
2023/12/29 02:36:07;;;;;;;14.50;3.67;;;10.00;99.90;;;;;;5043507;28;20199;-81
2023/12/29 02:38:33;;;;;;;14.45;3.50;;;10.00;99.90;;;;;;5042762;28;20108;-80
2023/12/29 02:40:59;;;;;;;16.48;3.33;;;10.00;99.90;;;;;;5035375;28;20075;-81
2023/12/29 02:43:25;;;;;;;15.18;3.13;;;10.00;99.90;;;;;;5044745;28;20411;-81
2023/12/29 02:45:51;;;;;;;13.05;3.17;;;10.00;99.90;;;;;;5039881;28;20074;-81
2023/12/29 02:48:17;;;;;;;12.27;3.40;;;10.00;99.90;;;;;;5042126;28;20432;-80
2023/12/29 02:50:42;;;;;;;5.97;1.83;;;10.00;99.90;;;;;;5041426;28;20041;-80
2023/12/29 02:53:08;;;;;;;13.65;3.17;;;10.00;99.90;;;;;;5044117;28;20064;-81
2023/12/29 02:55:34;;;;;;;14.88;3.83;;;10.00;99.90;;;;;;5043490;28;20475;-80
2023/12/29 02:57:59;;;;;;;11.55;3.08;;;10.00;99.90;;;;;;5044703;28;20033;-81
2023/12/29 03:00:25;;;;;;;10.05;2.80;;;10.00;99.90;;;;;;5037901;28;20444;-81
2023/12/29 03:02:51;;;;;;;11.63;2.97;;;10.10;99.90;;;;;;5057664;28;20048;-80
2023/12/29 03:05:16;;;;;;;13.98;3.30;;;10.10;99.90;;;;;;5036637;28;20049;-80
2023/12/29 03:07:42;;;;;;;15.15;3.40;;;10.10;99.90;;;;;;5045661;28;20052;-81
2023/12/29 03:10:08;;;;;;;9.82;3.00;;;10.10;99.90;;;;;;5044066;28;20032;-81
2023/12/29 03:12:34;;;;;;;14.50;3.55;;;10.10;99.90;;;;;;5047306;28;20124;-81
2023/12/29 03:15:00;;;;;;;9.75;2.70;;;10.20;99.90;;;;;;5047922;28;20116;-80
2023/12/29 03:17:25;;;;;;;14.38;3.10;;;10.20;99.90;;;;;;5042700;28;20071;-81
2023/12/29 03:19:52;;;;;;;11.68;3.22;;;10.20;99.90;;;;;;5072052;28;20585;-80
2023/12/29 03:22:18;;;;;;;14.95;3.22;;;10.20;99.90;;;;;;5046542;28;20067;-81
2023/12/29 03:24:44;;;;;;;12.07;3.00;;;10.30;99.90;;;;;;5046618;28;20132;-81
2023/12/29 03:27:09;;;;;;;11.45;3.13;;;10.30;99.90;;;;;;5043766;28;20120;-81
2023/12/29 03:29:36;;;;;;;11.02;3.25;;;10.30;99.90;;;;;;5042266;28;20040;-81
2023/12/29 03:32:01;;;;;;;13.15;3.40;;;10.30;99.90;;;;;;5046563;28;20051;-81
2023/12/29 03:34:27;;;;;;;13.80;3.35;;;10.30;99.90;;;;;;5051174;28;20033;-80
2023/12/29 03:36:52;;;;;;;12.30;3.05;;;10.30;99.90;;;;;;5039877;28;20147;-81
2023/12/29 03:39:18;;;;;;;11.13;3.05;;;10.30;99.90;;;;;;5045583;28;20041;-81
2023/12/29 03:41:44;;;;;;;13.98;3.15;;;10.30;99.90;;;;;;5046281;28;20053;-79
2023/12/29 03:44:10;;;;;;;13.23;3.25;;;10.30;99.90;;;;;;5047422;28;20045;-79
2023/12/29 03:46:36;;;;;;;14.68;2.95;;;10.30;99.90;;;;;;5043417;28;20056;-81
2023/12/29 03:49:02;;;;;;;12.55;3.22;;;10.30;99.90;;;;;;5045913;28;20037;-81
2023/12/29 03:51:28;;;;;;;10.90;3.23;;;10.30;99.90;;;;;;5044526;28;20060;-81
2023/12/29 03:53:54;;;;;;;11.85;3.20;;;10.30;99.90;;;;;;5038678;28;20037;-81
2023/12/29 03:56:19;;;;;;;15.63;3.22;;;10.20;99.90;;;;;;5041500;28;20060;-80
2023/12/29 03:58:46;;;;;;;11.77;3.30;;;10.30;99.90;;;;;;5037458;28;20040;-81
2023/12/29 04:01:13;;;;;;;11.30;2.72;;;10.30;99.90;;;;;;5044509;28;20045;-81
2023/12/29 04:03:39;;;;;;;12.23;3.08;;;10.30;99.90;;;;;;5039809;28;20059;-81
2023/12/29 04:06:05;;;;;;;12.80;3.17;;;10.20;99.90;;;;;;5044225;28;20061;-81
2023/12/29 04:08:31;;;;;;;15.13;3.65;;;10.30;99.90;;;;;;5042638;28;20431;-81
2023/12/29 04:10:56;;;;;;;11.18;3.08;;;10.30;99.90;;;;;;5044961;28;20044;-81
2023/12/29 04:13:22;;;;;;;6.90;1.80;;;10.30;99.90;;;;;;5044465;28;20037;-81
2023/12/29 04:15:48;;;;;;;14.57;3.40;;;10.30;99.90;;;;;;5045272;28;20053;-81
2023/12/29 04:18:13;;;;;;;11.07;1.60;;;10.40;99.90;;;;;;5043016;28;20036;-81
2023/12/29 04:20:39;;;;;;;11.63;3.20;;;10.40;99.90;;;;;;5045799;28;20087;-81
2023/12/29 04:23:06;;;;;;;13.13;3.13;;;10.40;99.90;;;;;;5044148;28;20134;-81
2023/12/29 04:25:32;;;;;;;13.38;3.65;;;10.40;99.90;;;;;;5047736;28;20037;-81
2023/12/29 04:27:58;;;;;;;16.02;3.50;;;10.40;99.90;;;;;;5042696;28;20048;-81
2023/12/29 04:30:23;;;;;;;15.00;3.65;;;10.40;99.90;;;;;;5041794;28;20500;-81
2023/12/29 04:32:49;;;;;;;15.93;3.45;;;10.30;99.90;;;;;;5038673;28;20124;-81
2023/12/29 04:35:15;;;;;;;17.52;3.67;;;10.30;99.90;;;;;;5038834;28;20047;-80
2023/12/29 04:37:45;;;;;;;18.38;4.40;;;10.30;99.90;;;;;;5047961;28;20049;-81
2023/12/29 04:40:11;;;;;;;15.00;3.75;;;10.30;99.90;;;;;;5064509;28;20049;-81
2023/12/29 04:42:37;;;;;;;15.57;3.85;;;10.30;99.90;;;;;;5044993;28;20443;-81
2023/12/29 04:45:04;;;;;;;17.05;3.55;;;10.30;99.90;;;;;;5045607;28;20038;-80
2023/12/29 04:47:29;;;;;;;17.80;4.13;;;10.30;99.90;;;;;;5041707;28;20086;-81
2023/12/29 04:49:55;;;;;;;15.70;3.83;;;10.30;99.90;;;;;;5047518;28;20045;-80
2023/12/29 04:52:21;;;;;;;16.30;3.90;;;10.30;99.90;;;;;;5047045;28;20094;-81
2023/12/29 04:54:46;;;;;;;15.25;3.58;;;10.30;99.90;;;;;;5047278;28;20041;-80
2023/12/29 04:57:12;;;;;;;18.05;3.85;;;10.30;99.90;;;;;;5047522;28;20041;-80
2023/12/29 04:59:37;;;;;;;17.00;3.60;;;10.30;99.90;;;;;;5039074;28;20103;-81
2023/12/29 05:02:03;;;;;;;15.02;3.53;;;10.30;99.90;;;;;;5047162;28;20045;-81
2023/12/29 05:04:29;;;;;;;16.42;3.50;;;10.30;99.90;;;;;;5041205;28;20527;-81
2023/12/29 05:06:54;;;;;;;14.73;4.15;;;10.30;99.90;;;;;;5042369;28;20385;-80
2023/12/29 05:09:20;;;;;;;12.75;3.17;;;10.30;99.90;;;;;;5043972;28;20037;-80
2023/12/29 05:11:46;;;;;;;15.70;3.90;;;10.30;99.90;;;;;;5040881;28;20110;-80
2023/12/29 05:14:11;;;;;;;16.17;3.97;;;10.30;99.90;;;;;;5043233;28;20037;-80
2023/12/29 05:16:37;;;;;;;15.27;3.95;;;10.30;99.90;;;;;;5045511;28;20041;-81
2023/12/29 05:19:03;;;;;;;13.60;3.88;;;10.30;99.90;;;;;;5046283;28;20033;-81
2023/12/29 05:21:28;;;;;;;17.85;4.18;;;10.30;99.90;;;;;;5041436;28;20641;-80
2023/12/29 05:23:54;;;;;;;21.40;4.60;;;10.30;99.90;;;;;;5049976;28;20053;-80
2023/12/29 05:26:20;;;;;;;17.10;4.75;;;10.30;99.90;;;;;;5043631;28;20429;-80
2023/12/29 05:28:45;;;;;;;16.05;3.58;;;10.30;99.90;;;;;;5047718;28;20074;-80
2023/12/29 05:31:11;;;;;;;18.33;3.92;;;10.30;99.90;;;;;;5046851;28;20071;-81
2023/12/29 05:33:36;;;;;;;19.08;4.57;;;10.30;99.90;;;;;;5042097;28;20447;-80
2023/12/29 05:36:07;;;;;;;17.48;4.57;;;10.30;99.90;;;;;;5046285;28;20048;-81
2023/12/29 05:38:34;;;;;;;15.98;3.58;;;10.30;99.90;;;;;;5048878;28;20116;-81
2023/12/29 05:41:01;;;;;;;18.23;4.20;;;10.30;99.90;;;;;;5042194;28;20045;-81
2023/12/29 05:43:27;;;;;;;19.15;4.38;;;10.30;99.90;;;;;;5043067;28;20128;-80
2023/12/29 05:45:53;;;;;;;17.02;4.13;;;10.30;99.90;;;;;;5046188;28;20281;-80
2023/12/29 05:48:19;;;;;;;18.10;4.30;;;10.30;99.90;;;;;;5039945;28;20052;-81
2023/12/29 05:50:44;;;;;;;21.77;4.28;;;10.30;99.90;;;;;;5041432;28;20127;-80
2023/12/29 05:53:10;;;;;;;21.02;5.07;;;10.20;99.90;;;;;;5044983;28;20684;-81
2023/12/29 05:55:36;;;;;;;15.50;4.50;;;10.20;99.90;;;;;;5042182;28;20045;-80
2023/12/29 05:58:02;;;;;;;22.77;5.28;;;10.20;99.90;;;;;;5045909;28;20037;-81
2023/12/29 06:00:27;;;;;;;22.67;5.38;;;10.20;99.90;;;;;;5040508;28;20045;-80
2023/12/29 06:02:53;;;;;;;18.55;4.97;;;10.20;99.90;;;;;;5035022;28;20052;-80
2023/12/29 06:05:19;;;;;;;20.02;4.75;;;10.20;99.90;;;;;;5043602;28;20053;-80
2023/12/29 06:07:44;;;;;;;15.73;4.40;;;10.20;99.90;;;;;;5048411;28;20060;-81
2023/12/29 06:10:11;;;;;;;17.17;4.10;;;10.20;99.90;;;;;;5058701;28;20052;-79
2023/12/29 06:12:37;;;;;;;19.48;4.47;;;10.20;99.90;;;;;;5043994;28;20080;-79
2023/12/29 06:15:03;;;;;;;20.73;4.47;;;10.20;99.90;;;;;;5042488;28;20053;-79
2023/12/29 06:17:28;;;;;;;20.50;4.53;;;10.20;99.90;;;;;;5041569;28;20559;-79
2023/12/29 06:19:54;;;;;;;17.35;4.43;;;10.20;99.90;;;;;;5043042;28;20047;-80
2023/12/29 06:22:20;;;;;;;21.13;4.63;;;10.20;99.90;;;;;;5044387;28;20503;-79
2023/12/29 06:24:45;;;;;;;22.10;4.63;;;10.20;99.90;;;;;;5044405;28;20048;-80
2023/12/29 06:27:12;;;;;;;21.23;4.35;;;10.20;99.90;;;;;;5041295;28;20048;-79
2023/12/29 06:29:37;;;;;;;19.90;4.28;;;10.20;99.90;;;;;;5044456;28;20452;-80
2023/12/29 06:32:04;;;;;;;18.35;4.63;;;10.10;99.90;;;;;;5039548;28;20084;-79
2023/12/29 06:34:30;;;;;;;18.87;4.57;;;10.10;99.90;;;;;;5044331;28;20427;-79
2023/12/29 06:36:56;;;;;;;21.75;4.43;;;10.10;99.90;;;;;;5044016;28;20064;-79
2023/12/29 06:39:22;;;;;;;18.92;4.75;;;10.10;99.90;;;;;;5027883;28;20037;-80
2023/12/29 06:41:48;;;;;;;19.75;4.65;;;10.10;99.90;;;;;;5044764;28;20527;-80
2023/12/29 06:44:14;;;;;;;21.85;5.07;;;10.10;99.90;;;;;;5048599;28;20056;-79
2023/12/29 06:46:40;;;;;;;18.25;4.63;;;10.10;99.90;;;;;;5048630;28;20049;-80
2023/12/29 06:49:08;;;;;;;22.83;4.70;;;10.10;99.90;;;;;;5042955;28;20418;-80
2023/12/29 06:51:34;;;;;;;20.42;5.05;;;10.10;99.90;;;;;;5038975;28;20072;-80
2023/12/29 06:54:00;;;;;;;22.02;4.88;;;10.10;99.90;;;;;;5050507;28;20045;-80
2023/12/29 06:56:26;;;;;;;22.83;5.00;;;10.10;99.90;;;;;;5043540;28;20094;-80
2023/12/29 06:58:51;;;;;;;24.63;5.38;;;10.10;99.90;;;;;;5042694;28;20073;-81
2023/12/29 07:01:17;;;;;;;22.30;5.35;;;10.10;99.90;;;;;;5046033;28;20037;-78
2023/12/29 07:03:43;;;;;;;28.40;5.50;;;10.00;99.90;;;;;;5040263;28;20052;-78
2023/12/29 07:06:10;;;;;;;18.88;5.00;;;10.00;99.90;;;;;;5041386;28;20093;-76
2023/12/29 07:08:36;;;;;;;24.35;5.22;;;10.00;99.90;;;;;;5044891;28;20095;-77
2023/12/29 07:11:02;;;;;;;22.05;4.97;;;10.00;99.90;;;;;;5033729;28;20057;-77
2023/12/29 07:13:28;;;;;;;25.40;5.45;;;10.00;99.90;;;;;;5042574;28;20128;-76
2023/12/29 07:15:57;;;;;;;26.05;5.35;;;10.00;99.90;;;;;;5036576;28;20453;-76
2023/12/29 07:18:22;;;;;;;25.30;5.35;;;10.00;99.90;;;;;;5034255;28;20096;-74
2023/12/29 07:20:48;;;;;;;26.88;6.35;;;10.00;99.90;;;;;;5040540;28;20143;-72
2023/12/29 07:23:14;;;;;;;24.10;5.68;;;10.00;99.90;;;;;;5047954;28;20041;-73
2023/12/29 07:25:39;;;;;;;25.85;5.35;;;10.00;99.90;;;;;;5045025;28;20029;-73
2023/12/29 07:28:05;;;;;;;23.20;5.72;;;10.00;99.90;;;;;;5035721;28;20036;-73
2023/12/29 07:30:31;;;;;;;24.25;5.57;;;10.00;99.90;;;;;;5044450;28;20048;-73
2023/12/29 07:32:57;;;;;;;18.50;4.70;;;10.00;99.90;;;;;;5040697;28;20051;-73
2023/12/29 07:35:22;;;;;;;23.92;5.10;;;10.00;99.90;;;;;;5035365;28;20045;-74
2023/12/29 07:37:48;;;;;;;26.48;5.25;;;10.00;99.90;;;;;;5045243;28;20052;-74
2023/12/29 07:40:14;;;;;;;23.27;5.13;;;10.00;99.90;;;;;;5035539;28;20049;-74
2023/12/29 07:42:40;;;;;;;19.48;4.97;;;10.00;99.90;;;;;;5044160;28;20503;-73
2023/12/29 07:45:08;;;;;;;24.38;5.47;;;10.00;99.90;;;;;;5039560;28;20040;-74
2023/12/29 07:47:34;;;;;;;23.27;5.32;;;10.00;99.90;;;;;;5048260;28;20429;-73
2023/12/29 07:50:00;;;;;;;22.55;5.32;;;10.00;99.90;;;;;;5042392;28;20064;-73
2023/12/29 07:52:25;;;;;;;21.70;5.10;;;10.00;99.90;;;;;;5041260;28;20041;-73
2023/12/29 07:54:51;;;;;;;21.00;4.80;;;10.00;99.90;;;;;;5046057;28;20419;-74
2023/12/29 07:57:17;;;;;;;25.55;5.80;;;10.00;99.90;;;;;;5045156;28;20053;-74
2023/12/29 07:59:42;;;;;;;24.75;5.45;;;10.00;99.90;;;;;;5042409;28;20575;-73
2023/12/29 08:02:08;;;;;;;18.80;5.30;;;10.00;99.90;;;;;;5042499;28;20045;-74
2023/12/29 08:04:34;;;;;;;20.08;4.43;;;10.00;99.90;;;;;;5036143;28;20137;-74
2023/12/29 08:06:59;;;;;;;10.90;2.80;;;10.00;99.90;;;;;;5038833;28;20056;-74
2023/12/29 08:09:25;;;;;;;15.88;3.45;;;9.90;99.90;;;;;;5045000;28;20132;-74
2023/12/29 08:11:51;;;;;;;10.48;2.75;;;9.80;99.90;;;;;;5046102;28;20047;-74
2023/12/29 08:14:17;;;;;;;12.73;3.35;;;9.70;99.90;;;;;;5047774;28;20044;-77
2023/12/29 08:16:42;;;;;;;11.88;2.88;;;9.70;99.90;;;;;;5044158;28;20048;-75
2023/12/29 08:19:09;;;;;;;14.52;3.25;;;9.60;99.90;;;;;;5040480;28;20032;-76
2023/12/29 08:21:36;;;;;;;14.02;3.20;;;9.60;99.90;;;;;;5045068;28;20051;-76
2023/12/29 08:24:02;;;;;;;19.85;4.32;;;9.60;99.90;;;;;;5041753;28;20449;-77
2023/12/29 08:26:27;;;;;;;14.98;4.03;;;9.60;99.90;;;;;;5048617;28;20079;-79
2023/12/29 08:28:53;;;;;;;20.08;4.68;;;9.60;99.90;;;;;;5038516;28;20065;-75
2023/12/29 08:31:19;;;;;;;20.83;4.78;;;9.60;99.90;;;;;;5044416;28;20143;-78
2023/12/29 08:33:45;;;;;;;25.15;5.03;;;9.70;99.90;;;;;;5034950;28;20495;-79
2023/12/29 08:36:12;;;;;;;24.40;5.18;;;9.70;99.90;;;;;;5033322;28;20041;-81
2023/12/29 08:38:38;;;;;;;25.83;5.32;;;9.70;99.90;;;;;;5042090;28;20041;-78
2023/12/29 08:41:04;;;;;;;25.48;4.80;;;9.70;99.90;;;;;;5048455;28;20055;-77
2023/12/29 08:43:30;;;;;;;18.30;4.35;;;9.70;99.90;;;;;;5048458;28;20049;-80
2023/12/29 08:45:56;;;;;;;23.50;5.60;;;9.70;99.90;;;;;;5041621;28;20136;-78
2023/12/29 08:48:22;;;;;;;17.90;4.70;;;9.70;99.90;;;;;;5048242;28;20098;-79
2023/12/29 08:50:48;;;;;;;17.75;4.25;;;9.80;99.90;;;;;;5045621;28;20044;-78
2023/12/29 08:53:15;;;;;;;20.35;4.68;;;9.80;99.90;;;;;;5047812;28;20072;-77
2023/12/29 08:55:41;;;;;;;17.20;3.83;;;9.80;99.90;;;;;;5036755;28;20057;-80
2023/12/29 08:58:07;;;;;;;10.52;2.50;;;9.80;99.90;;;;;;5049093;28;20385;-79
2023/12/29 09:00:32;;;;;;;18.38;4.63;;;9.80;99.90;;;;;;5057123;28;20040;-82
2023/12/29 09:02:58;;;;;;;17.25;4.95;;;9.90;99.90;;;;;;5046836;28;20140;-82
2023/12/29 09:05:24;;;;;;;17.08;4.07;;;9.90;99.90;;;;;;5046444;28;20041;-81
2023/12/29 09:07:49;;;;;;;16.30;4.03;;;10.00;99.90;;;;;;5048226;28;20048;-83
2023/12/29 09:10:15;;;;;;;16.65;3.78;;;10.00;99.90;;;;;;5037454;28;20147;-80
2023/12/29 09:12:41;;;;;;;15.85;3.90;;;10.00;99.90;;;;;;5043079;28;20178;-77
2023/12/29 09:15:07;;;;;;;16.35;3.85;;;10.00;99.90;;;;;;5048411;28;20064;-80
2023/12/29 09:17:34;;;;;;;15.18;3.80;;;10.00;99.90;;;;;;5054657;28;20037;-79
2023/12/29 09:19:59;;;;;;;15.13;3.78;;;10.10;99.90;;;;;;5037770;28;20071;-80
2023/12/29 09:22:25;;;;;;;12.20;3.30;;;10.10;99.90;;;;;;5043070;28;20049;-80
2023/12/29 09:24:51;;;;;;;11.68;3.10;;;10.10;99.90;;;;;;5037985;28;20158;-80
2023/12/29 09:27:17;;;;;;;13.00;3.40;;;10.10;99.90;;;;;;5046223;28;20053;-76
2023/12/29 09:29:43;;;;;;;13.65;3.40;;;10.10;99.90;;;;;;5037303;28;20504;-77
2023/12/29 09:32:08;;;;;;;10.85;2.78;;;10.10;99.90;;;;;;5043840;28;20048;-81
2023/12/29 09:34:34;;;;;;;10.25;3.13;;;10.20;99.90;;;;;;5042415;28;20116;-82
2023/12/29 09:37:00;;;;;;;12.00;3.20;;;10.20;99.90;;;;;;5041892;28;20033;-82
2023/12/29 09:39:25;;;;;;;10.52;3.20;;;10.20;99.90;;;;;;5036431;28;20049;-81
2023/12/29 09:41:54;;;;;;;11.60;3.03;;;10.20;99.90;;;;;;5035503;28;20045;-82
2023/12/29 09:44:21;;;;;;;12.48;3.05;;;10.30;99.90;;;;;;5046665;28;20127;-81
2023/12/29 09:46:52;;;;;;;11.90;3.50;;;10.20;99.90;;;;;;5045927;28;20060;-80
2023/12/29 09:49:19;;;;;;;9.40;2.40;;;10.20;99.90;;;;;;5054223;28;20048;-89
2023/12/29 09:51:45;;;;;;;13.48;3.17;;;10.20;99.90;;;;;;5053884;28;20525;-87
2023/12/29 09:54:12;;;;;;;10.07;3.00;;;10.20;99.90;;;;;;5045395;28;20048;-80
2023/12/29 09:56:38;;;;;;;9.65;2.95;;;10.20;99.90;;;;;;5037601;28;20044;-81
2023/12/29 09:59:04;;;;;;;12.98;3.97;;;10.20;99.90;;;;;;5047538;28;20049;-84
2023/12/29 10:01:30;;;;;;;11.38;2.90;;;10.20;99.90;;;;;;5035702;28;20052;-80
2023/12/29 10:03:57;;;;;;;10.35;3.00;;;10.20;99.90;;;;;;5028540;28;20054;-81
2023/12/29 10:06:26;;;;;;;9.20;2.15;;;10.20;99.90;;;;;;5032513;28;20050;-79
2023/12/29 10:08:54;;;;;;;8.00;2.08;;;10.10;99.90;;;;;;5033460;28;20053;-79
2023/12/29 10:11:22;;;;;;;9.52;1.95;;;10.00;99.90;;;;;;5036147;28;20045;-81
2023/12/29 10:13:54;;;;;;;7.75;2.05;;;9.90;99.90;;;;;;5036138;28;20135;-80
2023/12/29 10:16:29;;;;;;;6.63;2.10;;;9.90;99.90;;;;;;5048030;28;20110;-81
2023/12/29 10:18:54;;;;;;;4.80;1.80;;;9.70;99.90;;;;;;5053108;28;20049;-79
2023/12/29 10:21:27;;;;;;;7.78;2.17;;;9.60;99.90;;;;;;5049453;28;20068;-79
2023/12/29 10:24:05;;;;;;;10.98;2.70;;;9.60;99.90;;;;;;5049298;28;20041;-80
2023/12/29 10:26:31;;;;;;;6.75;1.83;;;9.50;99.90;;;;;;5049981;28;20041;-81
2023/12/29 10:28:58;;;;;;;4.53;1.48;;;9.50;99.90;;;;;;5051665;28;20051;-81
2023/12/29 10:31:24;;;;;;;4.13;0.90;;;9.40;99.90;;;;;;5057018;28;20044;-79
2023/12/29 10:33:51;;;;;;;5.55;0.90;;;9.20;99.90;;;;;;5053886;28;20040;-77
2023/12/29 10:36:17;;;;;;;4.30;1.17;;;9.10;99.90;;;;;;5045192;28;20519;-78
2023/12/29 10:38:43;;;;;;;6.03;1.80;;;8.90;99.90;;;;;;5043178;28;20155;-77
2023/12/29 10:41:16;;;;;;;7.00;1.30;;;8.60;99.90;;;;;;5039595;28;20057;-76
2023/12/29 10:43:44;;;;;;;2.60;0.77;;;8.30;99.90;;;;;;5046962;28;20059;-77
2023/12/29 10:46:11;;;;;;;4.53;0.90;;;8.00;99.90;;;;;;5044747;28;20048;-78
2023/12/29 10:48:37;;;;;;;4.32;0.95;;;7.90;99.90;;;;;;5041660;28;20059;-77
2023/12/29 10:51:04;;;;;;;3.20;0.98;;;7.80;99.90;;;;;;5044598;28;20041;-79
2023/12/29 10:53:34;;;;;;;4.45;0.98;;;7.60;99.90;;;;;;5038596;28;20041;-78
2023/12/29 10:56:00;;;;;;;3.95;1.40;;;7.50;99.90;;;;;;5066417;28;20048;-77
2023/12/29 10:58:28;;;;;;;4.97;1.42;;;7.50;99.90;;;;;;5047846;28;20243;-79
2023/12/29 11:00:57;;;;;;;5.05;1.10;;;7.50;99.90;;;;;;5074460;28;20061;-78
2023/12/29 11:03:24;;;;;;;0.80;0.47;;;7.50;99.90;;;;;;5045096;28;20480;-85
2023/12/29 11:05:51;;;;;;;4.90;1.20;;;7.50;99.90;;;;;;5048886;28;20084;-82
2023/12/29 11:08:18;;;;;;;5.70;1.25;;;7.60;99.90;;;;;;5049342;28;20095;-80
2023/12/29 11:10:45;;;;;;;7.93;1.48;;;7.80;99.90;;;;;;5051252;28;20073;-82
2023/12/29 11:13:13;;;;;;;7.25;1.50;;;8.00;99.90;;;;;;5049656;28;20053;-82
2023/12/29 11:15:44;;;;;;;8.65;1.80;;;8.10;99.90;;;;;;5043048;28;20052;-80
2023/12/29 11:18:18;;;;;;;8.85;2.03;;;8.40;99.90;;;;;;5044454;28;20045;-78
2023/12/29 11:20:45;;;;;;;7.80;1.65;;;8.60;99.90;;;;;;5044708;28;20045;-78
2023/12/29 11:23:13;;;;;;;;;;;8.80;99.90;;;;;;5046955;28;20143;-80
2023/12/29 11:25:39;;;;;;;7.28;2.00;;;8.90;99.90;;;;;;5046350;28;20343;-77
2023/12/29 11:28:13;;;;;;;7.43;2.08;;;8.90;99.90;;;;;;5052527;28;20051;-79
2023/12/29 11:30:39;;;;;;;8.38;2.10;;;9.10;99.90;;;;;;5054503;28;20416;-78
2023/12/29 11:33:29;;;;;;;8.45;2.22;;;9.10;99.90;;;;;;5048949;28;20748;-78
2023/12/29 11:36:03;;;;;;;10.05;2.55;;;9.20;99.90;;;;;;5048547;28;20695;-80
2023/12/29 11:38:52;;;;;;;10.45;2.55;;;9.10;99.90;;;;;;5047903;28;20057;-79
2023/12/29 11:41:36;;;;;;;5.28;1.65;;;9.20;99.90;;;;;;5045880;28;20053;-81
2023/12/29 11:44:02;;;;;;;10.52;2.97;;;9.20;99.90;;;;;;5046843;28;20041;-83
2023/12/29 11:46:39;;;;;;;12.32;3.28;;;9.20;99.90;;;;;;5046748;28;20070;-85
2023/12/29 11:49:05;;;;;;;10.23;2.92;;;9.30;99.90;;;;;;5044824;28;20106;-80
2023/12/29 11:51:45;;;;;;;14.20;3.58;;;9.30;99.90;;;;;;5048318;28;20045;-76
2023/12/29 11:54:22;;;;;;;11.93;3.20;;;9.40;99.90;;;;;;5047264;28;20060;-75
2023/12/29 11:56:47;;;;;;;11.32;3.15;;;9.40;99.90;;;;;;5046778;28;20480;-75
2023/12/29 11:59:17;;;;;;;13.13;3.40;;;9.50;99.90;;;;;;5042841;28;20098;-82
2023/12/29 12:01:43;;;;;;;12.60;3.40;;;9.60;99.90;;;;;;5043218;28;20755;-79
2023/12/29 12:04:35;;;;;;;9.52;2.42;;;9.70;99.90;;;;;;5040966;28;20119;-75
2023/12/29 12:07:00;;;;;;;12.50;3.10;;;9.90;99.90;;;;;;5047709;28;20041;-73
2023/12/29 12:09:26;;;;;;;10.63;2.72;;;9.90;99.90;;;;;;5032653;28;20044;-75
2023/12/29 12:11:52;;;;;;;10.93;2.90;;;10.00;99.90;;;;;;5036145;28;20399;-75
2023/12/29 12:14:47;;;;;;;7.00;1.75;;;10.10;99.90;;;;;;5045353;28;20147;-75
2023/12/29 12:17:26;;;;;;;11.77;2.70;;;10.20;99.90;;;;;;5038445;28;20049;-74
2023/12/29 12:19:53;;;;;;;6.38;1.80;;;10.20;99.90;;;;;;5034569;28;20037;-75
2023/12/29 12:22:21;;;;;;;8.85;1.75;;;10.20;99.90;;;;;;5040815;28;20044;-77
2023/12/29 12:24:47;;;;;;;6.30;1.50;;;10.20;99.90;;;;;;5052513;28;20055;-77
2023/12/29 12:27:13;;;;;;;8.35;1.70;;;10.20;99.90;;;;;;5041172;28;20037;-77
2023/12/29 12:29:38;;;;;;;11.50;1.88;;;10.20;99.90;;;;;;5044226;28;20048;-78
2023/12/29 12:32:07;;;;;;;14.18;3.42;;;10.30;99.90;;;;;;5041825;28;20044;-78
2023/12/29 12:34:39;;;;;;;14.50;3.15;;;10.30;99.90;;;;;;5043627;28;20045;-78
2023/12/29 12:37:05;;;;;;;12.98;2.78;;;10.40;99.90;;;;;;5035299;28;20056;-78
2023/12/29 12:39:40;;;;;;;16.48;2.88;;;10.40;99.90;;;;;;5056234;28;20111;-78
2023/12/29 12:42:06;;;;;;;12.80;2.75;;;10.40;99.90;;;;;;5046624;28;20045;-78